sensor_id;sensor_type;location;lat;lon;timestamp;temperature;humidity
58993;DHT22;44782;0.000;0.000;2023-09-19T00:01:18;23.10;63.40
58993;DHT22;44782;0.000;0.000;2023-09-19T00:03:36;23.10;63.40
58993;DHT22;44782;0.000;0.000;2023-09-19T00:05:52;23.10;63.40
58993;DHT22;44782;0.000;0.000;2023-09-19T00:08:08;23.10;63.40
58993;DHT22;44782;0.000;0.000;2023-09-19T00:10:25;23.10;63.40
58993;DHT22;44782;0.000;0.000;2023-09-19T00:12:45;23.10;63.40
58993;DHT22;44782;0.000;0.000;2023-09-19T00:15:01;23.10;63.40
58993;DHT22;44782;0.000;0.000;2023-09-19T00:17:20;23.10;63.40
58993;DHT22;44782;0.000;0.000;2023-09-19T00:19:36;23.10;63.40
58993;DHT22;44782;0.000;0.000;2023-09-19T00:21:53;23.10;63.40
58993;DHT22;44782;0.000;0.000;2023-09-19T00:24:08;23.10;63.40
58993;DHT22;44782;0.000;0.000;2023-09-19T00:26:24;23.10;63.40
58993;DHT22;44782;0.000;0.000;2023-09-19T00:28:40;23.10;63.50
58993;DHT22;44782;0.000;0.000;2023-09-19T00:30:55;23.10;63.50
58993;DHT22;44782;0.000;0.000;2023-09-19T00:33:12;23.10;63.50
58993;DHT22;44782;0.000;0.000;2023-09-19T00:35:31;23.10;63.50
58993;DHT22;44782;0.000;0.000;2023-09-19T00:37:48;23.10;63.50
58993;DHT22;44782;0.000;0.000;2023-09-19T00:40:04;23.10;63.60
58993;DHT22;44782;0.000;0.000;2023-09-19T00:42:21;23.10;63.50
58993;DHT22;44782;0.000;0.000;2023-09-19T00:44:36;23.10;63.50
58993;DHT22;44782;0.000;0.000;2023-09-19T00:46:52;23.10;63.50
58993;DHT22;44782;0.000;0.000;2023-09-19T00:49:08;23.10;63.50
58993;DHT22;44782;0.000;0.000;2023-09-19T00:51:26;23.10;63.40
58993;DHT22;44782;0.000;0.000;2023-09-19T00:53:43;23.10;63.50
58993;DHT22;44782;0.000;0.000;2023-09-19T00:56:03;23.10;63.50
58993;DHT22;44782;0.000;0.000;2023-09-19T00:58:22;23.10;63.50
58993;DHT22;44782;0.000;0.000;2023-09-19T01:00:38;23.10;63.50
58993;DHT22;44782;0.000;0.000;2023-09-19T01:02:55;23.10;63.50
58993;DHT22;44782;0.000;0.000;2023-09-19T01:05:13;23.10;63.40
58993;DHT22;44782;0.000;0.000;2023-09-19T01:07:30;23.10;63.50
58993;DHT22;44782;0.000;0.000;2023-09-19T01:09:46;23.10;63.40
58993;DHT22;44782;0.000;0.000;2023-09-19T01:12:04;23.10;63.40
58993;DHT22;44782;0.000;0.000;2023-09-19T01:14:31;23.10;63.40
58993;DHT22;44782;0.000;0.000;2023-09-19T01:17:00;23.10;63.20
58993;DHT22;44782;0.000;0.000;2023-09-19T01:32:08;23.00;63.20
58993;DHT22;44782;0.000;0.000;2023-09-19T01:34:25;23.00;63.20
58993;DHT22;44782;0.000;0.000;2023-09-19T01:36:42;23.00;63.40
58993;DHT22;44782;0.000;0.000;2023-09-19T01:38:58;23.00;63.40
58993;DHT22;44782;0.000;0.000;2023-09-19T01:41:29;23.00;63.30
58993;DHT22;44782;0.000;0.000;2023-09-19T01:43:49;23.00;63.10
58993;DHT22;44782;0.000;0.000;2023-09-19T01:46:14;23.00;63.30
58993;DHT22;44782;0.000;0.000;2023-09-19T01:51:10;23.00;63.20
58993;DHT22;44782;0.000;0.000;2023-09-19T01:53:30;23.00;63.10
58993;DHT22;44782;0.000;0.000;2023-09-19T01:55:49;23.00;63.20
58993;DHT22;44782;0.000;0.000;2023-09-19T01:58:14;23.00;63.10
58993;DHT22;44782;0.000;0.000;2023-09-19T02:00:35;23.00;63.10
58993;DHT22;44782;0.000;0.000;2023-09-19T02:02:51;23.00;63.10
58993;DHT22;44782;0.000;0.000;2023-09-19T02:05:08;23.00;63.20
58993;DHT22;44782;0.000;0.000;2023-09-19T02:09:50;22.90;63.20
58993;DHT22;44782;0.000;0.000;2023-09-19T02:12:06;22.90;63.20
58993;DHT22;44782;0.000;0.000;2023-09-19T02:14:22;22.90;63.20
58993;DHT22;44782;0.000;0.000;2023-09-19T02:16:38;22.90;63.30
58993;DHT22;44782;0.000;0.000;2023-09-19T02:18:54;22.90;63.20
58993;DHT22;44782;0.000;0.000;2023-09-19T02:21:09;22.90;63.20
58993;DHT22;44782;0.000;0.000;2023-09-19T02:23:27;22.90;63.20
58993;DHT22;44782;0.000;0.000;2023-09-19T02:25:51;22.90;63.20
58993;DHT22;44782;0.000;0.000;2023-09-19T02:28:07;22.90;63.20
58993;DHT22;44782;0.000;0.000;2023-09-19T02:30:25;22.90;63.20
58993;DHT22;44782;0.000;0.000;2023-09-19T02:32:43;22.90;63.20
58993;DHT22;44782;0.000;0.000;2023-09-19T02:34:59;22.90;63.20
58993;DHT22;44782;0.000;0.000;2023-09-19T02:37:14;22.80;63.10
58993;DHT22;44782;0.000;0.000;2023-09-19T02:39:32;22.80;63.10
58993;DHT22;44782;0.000;0.000;2023-09-19T02:41:47;22.90;63.10
58993;DHT22;44782;0.000;0.000;2023-09-19T02:44:03;22.80;63.10
58993;DHT22;44782;0.000;0.000;2023-09-19T02:46:23;22.80;63.10
58993;DHT22;44782;0.000;0.000;2023-09-19T02:48:38;22.80;63.10
58993;DHT22;44782;0.000;0.000;2023-09-19T02:50:54;22.80;63.10
58993;DHT22;44782;0.000;0.000;2023-09-19T02:53:10;22.80;63.10
58993;DHT22;44782;0.000;0.000;2023-09-19T02:55:28;22.80;63.10
58993;DHT22;44782;0.000;0.000;2023-09-19T02:57:50;22.80;63.10
58993;DHT22;44782;0.000;0.000;2023-09-19T03:00:07;22.80;63.00
58993;DHT22;44782;0.000;0.000;2023-09-19T03:02:25;22.80;63.00
58993;DHT22;44782;0.000;0.000;2023-09-19T03:04:43;22.80;63.00
58993;DHT22;44782;0.000;0.000;2023-09-19T03:07:00;22.80;63.00
58993;DHT22;44782;0.000;0.000;2023-09-19T03:09:16;22.80;63.00
58993;DHT22;44782;0.000;0.000;2023-09-19T03:11:32;22.80;62.90
58993;DHT22;44782;0.000;0.000;2023-09-19T03:13:55;22.80;62.90
58993;DHT22;44782;0.000;0.000;2023-09-19T03:16:10;22.80;62.70
58993;DHT22;44782;0.000;0.000;2023-09-19T03:18:26;22.80;63.00
58993;DHT22;44782;0.000;0.000;2023-09-19T03:20:42;22.80;62.90
58993;DHT22;44782;0.000;0.000;2023-09-19T03:22:57;22.80;62.90
58993;DHT22;44782;0.000;0.000;2023-09-19T03:25:13;22.80;62.90
58993;DHT22;44782;0.000;0.000;2023-09-19T03:27:29;22.80;62.90
58993;DHT22;44782;0.000;0.000;2023-09-19T03:29:45;22.80;62.90
58993;DHT22;44782;0.000;0.000;2023-09-19T03:32:01;22.70;62.80
58993;DHT22;44782;0.000;0.000;2023-09-19T03:34:17;22.70;62.80
58993;DHT22;44782;0.000;0.000;2023-09-19T03:36:32;22.70;62.80
58993;DHT22;44782;0.000;0.000;2023-09-19T03:38:48;22.70;62.80
58993;DHT22;44782;0.000;0.000;2023-09-19T03:41:04;22.70;62.80
58993;DHT22;44782;0.000;0.000;2023-09-19T03:43:19;22.70;62.70
58993;DHT22;44782;0.000;0.000;2023-09-19T03:45:35;22.70;62.80
58993;DHT22;44782;0.000;0.000;2023-09-19T03:47:50;22.70;62.80
58993;DHT22;44782;0.000;0.000;2023-09-19T03:50:07;22.70;62.70
58993;DHT22;44782;0.000;0.000;2023-09-19T03:52:23;22.70;62.80
58993;DHT22;44782;0.000;0.000;2023-09-19T03:54:40;22.70;63.50
58993;DHT22;44782;0.000;0.000;2023-09-19T03:56:56;22.70;62.80
58993;DHT22;44782;0.000;0.000;2023-09-19T04:01:30;22.70;62.70
58993;DHT22;44782;0.000;0.000;2023-09-19T04:03:47;22.70;62.80
58993;DHT22;44782;0.000;0.000;2023-09-19T04:06:03;22.70;62.80
58993;DHT22;44782;0.000;0.000;2023-09-19T04:08:18;22.70;62.70
58993;DHT22;44782;0.000;0.000;2023-09-19T04:10:34;22.70;62.70
58993;DHT22;44782;0.000;0.000;2023-09-19T04:12:55;22.70;62.70
58993;DHT22;44782;0.000;0.000;2023-09-19T04:15:10;22.70;62.60
58993;DHT22;44782;0.000;0.000;2023-09-19T04:17:28;22.70;62.70
58993;DHT22;44782;0.000;0.000;2023-09-19T04:19:44;22.60;62.70
58993;DHT22;44782;0.000;0.000;2023-09-19T04:22:00;22.60;62.60
58993;DHT22;44782;0.000;0.000;2023-09-19T04:24:16;22.60;62.60
58993;DHT22;44782;0.000;0.000;2023-09-19T04:26:34;22.60;62.60
58993;DHT22;44782;0.000;0.000;2023-09-19T04:28:50;22.60;62.60
58993;DHT22;44782;0.000;0.000;2023-09-19T04:31:06;22.60;62.60
58993;DHT22;44782;0.000;0.000;2023-09-19T04:33:24;22.60;62.70
58993;DHT22;44782;0.000;0.000;2023-09-19T04:35:40;22.60;62.60
58993;DHT22;44782;0.000;0.000;2023-09-19T04:37:58;22.60;62.70
58993;DHT22;44782;0.000;0.000;2023-09-19T04:40:13;22.60;62.60
58993;DHT22;44782;0.000;0.000;2023-09-19T04:42:35;22.60;62.60
58993;DHT22;44782;0.000;0.000;2023-09-19T04:44:51;22.60;62.60
58993;DHT22;44782;0.000;0.000;2023-09-19T04:47:08;22.60;62.60
58993;DHT22;44782;0.000;0.000;2023-09-19T04:49:23;22.60;63.40
58993;DHT22;44782;0.000;0.000;2023-09-19T04:51:39;22.60;62.60
58993;DHT22;44782;0.000;0.000;2023-09-19T04:53:55;22.60;62.60
58993;DHT22;44782;0.000;0.000;2023-09-19T04:56:13;22.60;62.60
58993;DHT22;44782;0.000;0.000;2023-09-19T04:58:29;22.60;62.50
58993;DHT22;44782;0.000;0.000;2023-09-19T05:00:45;22.60;62.50
58993;DHT22;44782;0.000;0.000;2023-09-19T05:03:00;22.60;62.60
58993;DHT22;44782;0.000;0.000;2023-09-19T05:05:17;22.60;62.50
58993;DHT22;44782;0.000;0.000;2023-09-19T05:07:33;22.60;62.50
58993;DHT22;44782;0.000;0.000;2023-09-19T05:09:49;22.60;62.50
58993;DHT22;44782;0.000;0.000;2023-09-19T05:12:05;22.60;62.50
58993;DHT22;44782;0.000;0.000;2023-09-19T05:14:21;22.50;62.40
58993;DHT22;44782;0.000;0.000;2023-09-19T05:16:37;22.60;62.50
58993;DHT22;44782;0.000;0.000;2023-09-19T05:18:53;22.60;62.50
58993;DHT22;44782;0.000;0.000;2023-09-19T05:21:09;22.50;62.40
58993;DHT22;44782;0.000;0.000;2023-09-19T05:23:24;22.50;62.40
58993;DHT22;44782;0.000;0.000;2023-09-19T05:25:40;22.50;62.40
58993;DHT22;44782;0.000;0.000;2023-09-19T05:27:57;22.50;62.40
58993;DHT22;44782;0.000;0.000;2023-09-19T05:30:13;22.50;62.40
58993;DHT22;44782;0.000;0.000;2023-09-19T05:32:30;22.50;62.40
58993;DHT22;44782;0.000;0.000;2023-09-19T05:34:46;22.50;62.30
58993;DHT22;44782;0.000;0.000;2023-09-19T05:37:02;22.50;62.30
58993;DHT22;44782;0.000;0.000;2023-09-19T05:39:18;22.50;62.20
58993;DHT22;44782;0.000;0.000;2023-09-19T05:41:33;22.50;62.20
58993;DHT22;44782;0.000;0.000;2023-09-19T05:43:51;22.50;62.10
58993;DHT22;44782;0.000;0.000;2023-09-19T05:46:07;22.50;62.90
58993;DHT22;44782;0.000;0.000;2023-09-19T05:48:23;22.50;62.00
58993;DHT22;44782;0.000;0.000;2023-09-19T05:50:39;22.50;62.00
58993;DHT22;44782;0.000;0.000;2023-09-19T05:52:55;22.50;62.00
58993;DHT22;44782;0.000;0.000;2023-09-19T05:55:11;22.50;61.90
58993;DHT22;44782;0.000;0.000;2023-09-19T05:57:27;22.50;61.80
58993;DHT22;44782;0.000;0.000;2023-09-19T05:59:46;22.40;61.70
58993;DHT22;44782;0.000;0.000;2023-09-19T06:02:01;22.50;61.70
58993;DHT22;44782;0.000;0.000;2023-09-19T06:04:21;22.40;61.60
58993;DHT22;44782;0.000;0.000;2023-09-19T06:06:36;22.50;61.70
58993;DHT22;44782;0.000;0.000;2023-09-19T06:08:55;22.40;61.70
58993;DHT22;44782;0.000;0.000;2023-09-19T06:11:10;22.40;61.70
58993;DHT22;44782;0.000;0.000;2023-09-19T06:13:29;22.40;61.60
58993;DHT22;44782;0.000;0.000;2023-09-19T06:15:46;22.40;61.50
58993;DHT22;44782;0.000;0.000;2023-09-19T06:18:05;22.40;61.60
58993;DHT22;44782;0.000;0.000;2023-09-19T06:20:21;22.40;61.60
58993;DHT22;44782;0.000;0.000;2023-09-19T06:22:38;22.40;61.50
58993;DHT22;44782;0.000;0.000;2023-09-19T06:24:54;22.40;61.50
58993;DHT22;44782;0.000;0.000;2023-09-19T06:27:09;22.40;61.60
58993;DHT22;44782;0.000;0.000;2023-09-19T06:29:25;22.50;61.70
58993;DHT22;44782;0.000;0.000;2023-09-19T06:31:40;22.40;61.50
58993;DHT22;44782;0.000;0.000;2023-09-19T06:33:56;22.40;61.60
58993;DHT22;44782;0.000;0.000;2023-09-19T06:36:12;22.40;61.60
58993;DHT22;44782;0.000;0.000;2023-09-19T06:38:28;22.40;61.60
58993;DHT22;44782;0.000;0.000;2023-09-19T06:40:43;22.40;61.50
58993;DHT22;44782;0.000;0.000;2023-09-19T06:42:59;22.40;61.50
58993;DHT22;44782;0.000;0.000;2023-09-19T06:45:17;22.40;61.50
58993;DHT22;44782;0.000;0.000;2023-09-19T06:47:33;22.40;61.50
58993;DHT22;44782;0.000;0.000;2023-09-19T06:49:49;22.40;61.50
58993;DHT22;44782;0.000;0.000;2023-09-19T06:52:05;22.40;61.50
58993;DHT22;44782;0.000;0.000;2023-09-19T06:54:21;22.40;61.50
58993;DHT22;44782;0.000;0.000;2023-09-19T06:56:36;22.40;61.50
58993;DHT22;44782;0.000;0.000;2023-09-19T06:58:52;22.40;61.50
58993;DHT22;44782;0.000;0.000;2023-09-19T07:01:07;22.40;61.50
58993;DHT22;44782;0.000;0.000;2023-09-19T07:03:23;22.40;61.50
58993;DHT22;44782;0.000;0.000;2023-09-19T07:05:41;22.40;61.50
58993;DHT22;44782;0.000;0.000;2023-09-19T07:07:59;22.40;61.50
58993;DHT22;44782;0.000;0.000;2023-09-19T07:10:16;22.40;61.50
58993;DHT22;44782;0.000;0.000;2023-09-19T07:12:32;22.40;61.60
58993;DHT22;44782;0.000;0.000;2023-09-19T07:14:50;22.40;61.50
58993;DHT22;44782;0.000;0.000;2023-09-19T07:17:06;22.40;61.50
58993;DHT22;44782;0.000;0.000;2023-09-19T07:19:22;22.40;61.60
58993;DHT22;44782;0.000;0.000;2023-09-19T07:21:37;22.40;61.60
58993;DHT22;44782;0.000;0.000;2023-09-19T07:23:54;22.40;61.60
58993;DHT22;44782;0.000;0.000;2023-09-19T07:26:09;22.40;61.60
58993;DHT22;44782;0.000;0.000;2023-09-19T07:28:25;22.40;61.60
58993;DHT22;44782;0.000;0.000;2023-09-19T07:30:41;22.40;61.60
58993;DHT22;44782;0.000;0.000;2023-09-19T07:32:57;22.40;61.60
58993;DHT22;44782;0.000;0.000;2023-09-19T07:35:12;22.40;61.60
58993;DHT22;44782;0.000;0.000;2023-09-19T07:37:29;22.40;61.60
58993;DHT22;44782;0.000;0.000;2023-09-19T07:39:46;22.40;61.50
58993;DHT22;44782;0.000;0.000;2023-09-19T07:42:02;22.40;61.60
58993;DHT22;44782;0.000;0.000;2023-09-19T07:44:18;22.40;61.60
58993;DHT22;44782;0.000;0.000;2023-09-19T07:46:34;22.40;61.60
58993;DHT22;44782;0.000;0.000;2023-09-19T07:48:50;22.40;62.30
58993;DHT22;44782;0.000;0.000;2023-09-19T07:51:06;22.40;61.50
58993;DHT22;44782;0.000;0.000;2023-09-19T07:53:22;22.40;61.50
58993;DHT22;44782;0.000;0.000;2023-09-19T07:55:38;22.40;61.40
58993;DHT22;44782;0.000;0.000;2023-09-19T07:57:53;22.40;61.40
58993;DHT22;44782;0.000;0.000;2023-09-19T08:00:10;22.40;61.40
58993;DHT22;44782;0.000;0.000;2023-09-19T08:02:26;22.40;61.40
58993;DHT22;44782;0.000;0.000;2023-09-19T08:04:44;22.40;61.40
58993;DHT22;44782;0.000;0.000;2023-09-19T08:07:04;22.40;61.40
58993;DHT22;44782;0.000;0.000;2023-09-19T08:09:21;22.40;61.40
58993;DHT22;44782;0.000;0.000;2023-09-19T08:11:36;22.40;61.40
58993;DHT22;44782;0.000;0.000;2023-09-19T08:13:52;22.40;61.40
58993;DHT22;44782;0.000;0.000;2023-09-19T08:16:08;22.40;61.40
58993;DHT22;44782;0.000;0.000;2023-09-19T08:18:24;22.40;61.50
58993;DHT22;44782;0.000;0.000;2023-09-19T08:20:39;22.40;61.60
58993;DHT22;44782;0.000;0.000;2023-09-19T08:22:57;22.50;61.70
58993;DHT22;44782;0.000;0.000;2023-09-19T08:25:15;22.40;61.70
58993;DHT22;44782;0.000;0.000;2023-09-19T08:27:33;22.40;61.70
58993;DHT22;44782;0.000;0.000;2023-09-19T08:29:50;22.40;61.70
58993;DHT22;44782;0.000;0.000;2023-09-19T08:32:07;22.40;61.70
58993;DHT22;44782;0.000;0.000;2023-09-19T08:34:23;22.40;61.70
58993;DHT22;44782;0.000;0.000;2023-09-19T08:36:39;22.40;61.70
58993;DHT22;44782;0.000;0.000;2023-09-19T08:38:57;22.40;61.70
58993;DHT22;44782;0.000;0.000;2023-09-19T08:41:12;22.40;61.70
58993;DHT22;44782;0.000;0.000;2023-09-19T08:43:28;22.40;61.70
58993;DHT22;44782;0.000;0.000;2023-09-19T08:50:28;22.50;61.70
58993;DHT22;44782;0.000;0.000;2023-09-19T08:52:46;22.40;61.60
58993;DHT22;44782;0.000;0.000;2023-09-19T08:55:06;22.50;61.70
58993;DHT22;44782;0.000;0.000;2023-09-19T08:57:28;22.50;61.60
58993;DHT22;44782;0.000;0.000;2023-09-19T08:59:45;22.50;61.60
58993;DHT22;44782;0.000;0.000;2023-09-19T09:02:03;22.40;61.70
58993;DHT22;44782;0.000;0.000;2023-09-19T09:04:20;22.40;61.50
58993;DHT22;44782;0.000;0.000;2023-09-19T09:06:35;22.40;61.50
58993;DHT22;44782;0.000;0.000;2023-09-19T09:08:52;22.40;61.50
58993;DHT22;44782;0.000;0.000;2023-09-19T09:11:08;22.50;61.60
58993;DHT22;44782;0.000;0.000;2023-09-19T09:13:24;22.50;61.60
58993;DHT22;44782;0.000;0.000;2023-09-19T09:15:41;22.50;61.60
58993;DHT22;44782;0.000;0.000;2023-09-19T09:17:57;22.50;61.50
58993;DHT22;44782;0.000;0.000;2023-09-19T09:20:13;22.50;61.50
58993;DHT22;44782;0.000;0.000;2023-09-19T09:22:29;22.50;61.50
58993;DHT22;44782;0.000;0.000;2023-09-19T09:24:55;22.50;61.50
58993;DHT22;44782;0.000;0.000;2023-09-19T09:27:16;22.50;61.20
58993;DHT22;44782;0.000;0.000;2023-09-19T09:29:52;22.40;61.30
58993;DHT22;44782;0.000;0.000;2023-09-19T09:32:17;22.50;61.10
58993;DHT22;44782;0.000;0.000;2023-09-19T09:34:35;22.50;61.20
58993;DHT22;44782;0.000;0.000;2023-09-19T09:36:50;22.50;61.40
58993;DHT22;44782;0.000;0.000;2023-09-19T09:39:08;22.50;61.40
58993;DHT22;44782;0.000;0.000;2023-09-19T09:41:37;22.50;61.40
58993;DHT22;44782;0.000;0.000;2023-09-19T09:43:55;22.40;61.20
58993;DHT22;44782;0.000;0.000;2023-09-19T09:46:15;22.40;61.30
58993;DHT22;44782;0.000;0.000;2023-09-19T09:48:37;22.40;61.20
58993;DHT22;44782;0.000;0.000;2023-09-19T09:50:54;22.40;61.20
58993;DHT22;44782;0.000;0.000;2023-09-19T09:58:18;22.40;60.90
58993;DHT22;44782;0.000;0.000;2023-09-19T10:00:34;22.40;61.20
58993;DHT22;44782;0.000;0.000;2023-09-19T10:02:57;22.40;61.20
58993;DHT22;44782;0.000;0.000;2023-09-19T10:05:18;22.40;61.20
58993;DHT22;44782;0.000;0.000;2023-09-19T10:07:36;22.40;61.20
58993;DHT22;44782;0.000;0.000;2023-09-19T10:10:00;22.40;61.20
58993;DHT22;44782;0.000;0.000;2023-09-19T10:15:03;22.40;60.80
58993;DHT22;44782;0.000;0.000;2023-09-19T10:17:23;22.40;61.10
58993;DHT22;44782;0.000;0.000;2023-09-19T10:19:51;22.40;61.10
58993;DHT22;44782;0.000;0.000;2023-09-19T10:22:14;22.40;60.90
58993;DHT22;44782;0.000;0.000;2023-09-19T10:24:36;22.40;61.00
58993;DHT22;44782;0.000;0.000;2023-09-19T10:26:54;22.40;61.00
58993;DHT22;44782;0.000;0.000;2023-09-19T10:29:12;22.40;61.00
58993;DHT22;44782;0.000;0.000;2023-09-19T10:31:29;22.40;61.00
58993;DHT22;44782;0.000;0.000;2023-09-19T10:33:49;22.50;61.10
58993;DHT22;44782;0.000;0.000;2023-09-19T10:36:05;22.40;61.00
58993;DHT22;44782;0.000;0.000;2023-09-19T10:38:26;22.40;60.90
58993;DHT22;44782;0.000;0.000;2023-09-19T10:40:43;22.40;60.80
58993;DHT22;44782;0.000;0.000;2023-09-19T10:43:05;22.40;60.90
58993;DHT22;44782;0.000;0.000;2023-09-19T10:45:21;22.40;61.60
58993;DHT22;44782;0.000;0.000;2023-09-19T10:47:37;22.40;61.00
58993;DHT22;44782;0.000;0.000;2023-09-19T10:49:53;22.40;60.90
58993;DHT22;44782;0.000;0.000;2023-09-19T10:52:09;22.50;61.00
58993;DHT22;44782;0.000;0.000;2023-09-19T10:54:33;22.40;60.80
58993;DHT22;44782;0.000;0.000;2023-09-19T10:56:53;22.40;60.70
58993;DHT22;44782;0.000;0.000;2023-09-19T10:59:11;22.40;60.80
58993;DHT22;44782;0.000;0.000;2023-09-19T11:01:42;22.40;60.80
58993;DHT22;44782;0.000;0.000;2023-09-19T11:09:15;22.40;60.60
58993;DHT22;44782;0.000;0.000;2023-09-19T11:20:28;22.40;60.50
58993;DHT22;44782;0.000;0.000;2023-09-19T11:30:38;22.40;60.30
58993;DHT22;44782;0.000;0.000;2023-09-19T11:43:35;22.40;60.10
58993;DHT22;44782;0.000;0.000;2023-09-19T11:48:18;22.40;60.30
58993;DHT22;44782;0.000;0.000;2023-09-19T11:50:34;22.40;60.30
58993;DHT22;44782;0.000;0.000;2023-09-19T11:52:52;22.40;60.50
58993;DHT22;44782;0.000;0.000;2023-09-19T11:55:10;22.40;60.40
58993;DHT22;44782;0.000;0.000;2023-09-19T11:57:28;22.40;60.40
58993;DHT22;44782;0.000;0.000;2023-09-19T11:59:45;22.40;60.40
58993;DHT22;44782;0.000;0.000;2023-09-19T12:02:07;22.40;60.50
58993;DHT22;44782;0.000;0.000;2023-09-19T12:04:36;22.40;60.40
58993;DHT22;44782;0.000;0.000;2023-09-19T12:07:02;22.50;60.50
58993;DHT22;44782;0.000;0.000;2023-09-19T12:09:19;22.40;60.40
58993;DHT22;44782;0.000;0.000;2023-09-19T12:11:41;22.40;60.50
58993;DHT22;44782;0.000;0.000;2023-09-19T12:13:59;22.40;60.40
58993;DHT22;44782;0.000;0.000;2023-09-19T12:16:20;22.40;60.50
58993;DHT22;44782;0.000;0.000;2023-09-19T12:18:39;22.40;60.50
58993;DHT22;44782;0.000;0.000;2023-09-19T12:20:58;22.40;60.50
58993;DHT22;44782;0.000;0.000;2023-09-19T12:23:14;22.40;60.50
58993;DHT22;44782;0.000;0.000;2023-09-19T12:25:44;22.40;60.40
58993;DHT22;44782;0.000;0.000;2023-09-19T12:28:03;22.40;60.10
58993;DHT22;44782;0.000;0.000;2023-09-19T12:30:19;22.40;60.50
58993;DHT22;44782;0.000;0.000;2023-09-19T12:32:36;22.40;60.40
58993;DHT22;44782;0.000;0.000;2023-09-19T12:34:53;22.40;60.40
58993;DHT22;44782;0.000;0.000;2023-09-19T12:37:11;22.40;60.40
58993;DHT22;44782;0.000;0.000;2023-09-19T12:39:30;22.40;60.30
58993;DHT22;44782;0.000;0.000;2023-09-19T12:41:46;22.40;60.20
58993;DHT22;44782;0.000;0.000;2023-09-19T12:44:06;22.40;60.40
58993;DHT22;44782;0.000;0.000;2023-09-19T12:46:24;22.40;60.30
58993;DHT22;44782;0.000;0.000;2023-09-19T12:48:40;22.40;60.30
58993;DHT22;44782;0.000;0.000;2023-09-19T12:53:27;22.40;60.10
58993;DHT22;44782;0.000;0.000;2023-09-19T12:55:58;22.40;60.10
58993;DHT22;44782;0.000;0.000;2023-09-19T12:58:14;22.40;60.00
58993;DHT22;44782;0.000;0.000;2023-09-19T13:00:42;22.40;60.30
58993;DHT22;44782;0.000;0.000;2023-09-19T13:03:12;22.40;60.10
58993;DHT22;44782;0.000;0.000;2023-09-19T13:06:01;22.50;60.20
58993;DHT22;44782;0.000;0.000;2023-09-19T13:08:24;22.40;60.30
58993;DHT22;44782;0.000;0.000;2023-09-19T13:13:24;22.40;60.30
58993;DHT22;44782;0.000;0.000;2023-09-19T13:15:52;22.40;60.50
58993;DHT22;44782;0.000;0.000;2023-09-19T13:18:11;22.40;60.30
58993;DHT22;44782;0.000;0.000;2023-09-19T13:20:29;22.40;60.40
58993;DHT22;44782;0.000;0.000;2023-09-19T13:22:47;22.40;60.40
58993;DHT22;44782;0.000;0.000;2023-09-19T13:25:19;22.40;60.50
58993;DHT22;44782;0.000;0.000;2023-09-19T13:27:35;22.40;60.40
58993;DHT22;44782;0.000;0.000;2023-09-19T13:29:51;22.40;61.20
58993;DHT22;44782;0.000;0.000;2023-09-19T13:32:06;22.40;60.40
58993;DHT22;44782;0.000;0.000;2023-09-19T13:34:23;22.40;60.40
58993;DHT22;44782;0.000;0.000;2023-09-19T13:36:40;22.40;60.50
58993;DHT22;44782;0.000;0.000;2023-09-19T13:38:55;22.40;60.40
58993;DHT22;44782;0.000;0.000;2023-09-19T13:41:11;22.40;60.40
58993;DHT22;44782;0.000;0.000;2023-09-19T13:43:27;22.40;60.40
58993;DHT22;44782;0.000;0.000;2023-09-19T13:45:44;22.40;60.40
58993;DHT22;44782;0.000;0.000;2023-09-19T13:47:59;22.40;60.40
58993;DHT22;44782;0.000;0.000;2023-09-19T13:50:15;22.40;60.30
58993;DHT22;44782;0.000;0.000;2023-09-19T13:52:32;22.40;60.40
58993;DHT22;44782;0.000;0.000;2023-09-19T13:54:48;22.40;60.30
58993;DHT22;44782;0.000;0.000;2023-09-19T13:57:03;22.40;60.20
58993;DHT22;44782;0.000;0.000;2023-09-19T13:59:20;22.40;60.20
58993;DHT22;44782;0.000;0.000;2023-09-19T14:01:39;22.40;60.90
58993;DHT22;44782;0.000;0.000;2023-09-19T14:03:55;22.40;60.10
58993;DHT22;44782;0.000;0.000;2023-09-19T14:06:13;22.40;60.10
58993;DHT22;44782;0.000;0.000;2023-09-19T14:08:28;22.40;60.10
58993;DHT22;44782;0.000;0.000;2023-09-19T14:10:44;22.40;60.10
58993;DHT22;44782;0.000;0.000;2023-09-19T14:13:00;22.40;60.10
58993;DHT22;44782;0.000;0.000;2023-09-19T14:15:16;22.40;60.10
58993;DHT22;44782;0.000;0.000;2023-09-19T14:17:31;22.40;60.20
58993;DHT22;44782;0.000;0.000;2023-09-19T14:19:48;22.40;60.20
58993;DHT22;44782;0.000;0.000;2023-09-19T14:22:03;22.40;60.20
58993;DHT22;44782;0.000;0.000;2023-09-19T14:24:23;22.40;60.20
58993;DHT22;44782;0.000;0.000;2023-09-19T14:26:39;22.40;60.10
58993;DHT22;44782;0.000;0.000;2023-09-19T14:28:54;22.40;60.10
58993;DHT22;44782;0.000;0.000;2023-09-19T14:31:11;22.40;60.10
58993;DHT22;44782;0.000;0.000;2023-09-19T14:33:26;22.40;60.10
58993;DHT22;44782;0.000;0.000;2023-09-19T14:35:42;22.40;60.10
58993;DHT22;44782;0.000;0.000;2023-09-19T14:37:58;22.40;60.00
58993;DHT22;44782;0.000;0.000;2023-09-19T14:40:14;22.40;60.00
58993;DHT22;44782;0.000;0.000;2023-09-19T14:42:32;22.40;60.10
58993;DHT22;44782;0.000;0.000;2023-09-19T14:44:48;22.40;60.00
58993;DHT22;44782;0.000;0.000;2023-09-19T14:47:05;22.40;60.00
58993;DHT22;44782;0.000;0.000;2023-09-19T14:49:22;22.40;60.00
58993;DHT22;44782;0.000;0.000;2023-09-19T14:51:38;22.40;60.00
58993;DHT22;44782;0.000;0.000;2023-09-19T14:53:59;22.40;60.00
58993;DHT22;44782;0.000;0.000;2023-09-19T14:56:17;22.40;60.00
58993;DHT22;44782;0.000;0.000;2023-09-19T14:58:35;22.40;60.00
58993;DHT22;44782;0.000;0.000;2023-09-19T15:00:51;22.40;60.00
58993;DHT22;44782;0.000;0.000;2023-09-19T15:03:07;22.40;60.00
58993;DHT22;44782;0.000;0.000;2023-09-19T15:05:23;22.40;60.00
58993;DHT22;44782;0.000;0.000;2023-09-19T15:07:39;22.40;60.00
58993;DHT22;44782;0.000;0.000;2023-09-19T15:09:55;22.40;60.00
58993;DHT22;44782;0.000;0.000;2023-09-19T15:12:11;22.40;60.00
58993;DHT22;44782;0.000;0.000;2023-09-19T15:14:30;22.40;60.00
58993;DHT22;44782;0.000;0.000;2023-09-19T15:16:45;22.40;60.00
58993;DHT22;44782;0.000;0.000;2023-09-19T15:19:01;22.40;60.00
58993;DHT22;44782;0.000;0.000;2023-09-19T15:21:17;22.40;60.00
58993;DHT22;44782;0.000;0.000;2023-09-19T15:23:33;22.40;59.90
58993;DHT22;44782;0.000;0.000;2023-09-19T15:25:50;22.40;59.90
58993;DHT22;44782;0.000;0.000;2023-09-19T15:28:06;22.40;60.00
58993;DHT22;44782;0.000;0.000;2023-09-19T15:30:23;22.40;59.80
58993;DHT22;44782;0.000;0.000;2023-09-19T15:32:39;22.40;59.90
58993;DHT22;44782;0.000;0.000;2023-09-19T15:34:56;22.40;59.80
58993;DHT22;44782;0.000;0.000;2023-09-19T15:37:12;22.40;59.80
58993;DHT22;44782;0.000;0.000;2023-09-19T15:39:30;22.40;59.80
58993;DHT22;44782;0.000;0.000;2023-09-19T15:41:48;22.40;59.80
58993;DHT22;44782;0.000;0.000;2023-09-19T15:44:14;22.40;59.80
58993;DHT22;44782;0.000;0.000;2023-09-19T15:46:32;22.40;59.80
58993;DHT22;44782;0.000;0.000;2023-09-19T15:48:50;22.40;60.00
58993;DHT22;44782;0.000;0.000;2023-09-19T15:51:06;22.40;60.00
58993;DHT22;44782;0.000;0.000;2023-09-19T15:53:22;22.40;60.00
58993;DHT22;44782;0.000;0.000;2023-09-19T15:55:40;22.40;60.00